Terminal Aerodrome Forecast
Issued by NWS Pocatello, ID

Home | Current Version | Previous Version | Text Only | Print | Product List | Glossary On
Versions: 1 2 3 4 5 6 7 8 9 10 11 12 13 14 15 16 17
195
FTUS45 KPIH 160520
TAFPIH
TAF
KPIH 160520Z 1606/1706 VRB03KT P6SM SCT250
     FM162200 VRB05KT P6SM SCT035 BKN100
     FM170200 VRB05KT P6SM BKN030 OVC050=

USA.gov is the U.S. government's official web portal to all federal, state and local government web resources and services.